createdAt,value
2018-01-12T00:02:24.572Z,101627.78
2018-01-12T00:04:52.218Z,101632.12
2018-01-12T00:07:19.849Z,101634.48
2018-01-12T00:09:47.459Z,101629.86
2018-01-12T00:12:15.118Z,101627.42
2018-01-12T00:14:42.722Z,101639.31
2018-01-12T00:17:10.400Z,101643.70
2018-01-12T00:19:38.131Z,101639.97
2018-01-12T00:22:09.342Z,101643.44
2018-01-12T00:24:36.966Z,101644.05
2018-01-12T00:27:04.590Z,101643.59
2018-01-12T00:29:32.198Z,101644.12
2018-01-12T00:31:59.858Z,101645.62
2018-01-12T00:34:27.474Z,101648.44
2018-01-12T00:36:55.146Z,101644.55
2018-01-12T00:39:22.743Z,101644.79
2018-01-12T00:41:50.410Z,101643.19
2018-01-12T00:44:18.275Z,101650.46
2018-01-12T00:46:45.910Z,101644.41
2018-01-12T00:49:13.528Z,101639.80
2018-01-12T00:51:41.172Z,101634.60
2018-01-12T00:54:08.858Z,101640.47
2018-01-12T00:56:36.626Z,101643.83
2018-01-12T00:59:04.240Z,101644.77
2018-01-12T01:01:31.871Z,101649.05
2018-01-12T01:03:59.579Z,101650.87
2018-01-12T01:06:27.221Z,101647.45
2018-01-12T01:08:54.866Z,101651.02
2018-01-12T01:11:22.532Z,101652.53
2018-01-12T01:13:50.362Z,101658.64
2018-01-12T01:16:18.019Z,101660.53
2018-01-12T01:18:45.624Z,101656.23
2018-01-12T01:21:13.261Z,101656.84
2018-01-12T01:23:40.885Z,101661.15
2018-01-12T01:26:08.549Z,101662.45
2018-01-12T01:28:36.225Z,101668.78
2018-01-12T01:31:03.868Z,101666.30
2018-01-12T01:33:31.493Z,101679.00
2018-01-12T01:35:59.146Z,101675.48
2018-01-12T01:38:26.774Z,101679.70
2018-01-12T01:40:54.435Z,101678.59
2018-01-12T01:43:22.094Z,101689.52
2018-01-12T01:45:49.811Z,101696.30
2018-01-12T02:12:50.436Z,101711.59
2018-01-12T02:15:19.007Z,101710.81
2018-01-12T02:17:46.804Z,101721.86
2018-01-12T02:20:14.459Z,101720.30
2018-01-12T02:22:42.084Z,101722.30
2018-01-12T02:25:09.708Z,101731.32
2018-01-12T02:27:37.554Z,101728.48
2018-01-12T02:30:05.245Z,101728.09
2018-01-12T02:32:32.919Z,101740.45
2018-01-12T02:35:00.695Z,101739.42
2018-01-12T02:37:28.313Z,101740.05
2018-01-12T02:39:55.965Z,101747.86
2018-01-12T02:42:23.560Z,101744.78
2018-01-12T02:44:51.210Z,101740.42
2018-01-12T02:47:18.827Z,101745.22
2018-01-12T02:49:46.483Z,101740.31
2018-01-12T02:52:14.976Z,101745.53
2018-01-12T02:54:42.644Z,101747.84
2018-01-12T02:57:10.447Z,101745.08
2018-01-12T02:59:38.082Z,101744.16
2018-01-12T03:02:05.729Z,101748.59
2018-01-12T03:04:33.458Z,101753.81
2018-01-12T03:07:01.722Z,101751.67
2018-01-12T03:09:29.366Z,101754.27
2018-01-12T03:11:57.192Z,101757.25
2018-01-12T03:14:24.835Z,101745.60
2018-01-12T03:16:53.256Z,101750.61
2018-01-12T03:19:20.892Z,101749.15
2018-01-12T03:21:48.553Z,101749.48
2018-01-12T03:24:16.319Z,101757.44
2018-01-12T03:26:43.923Z,101755.33
2018-01-12T03:29:11.586Z,101755.05
2018-01-12T03:31:39.191Z,101756.49
2018-01-12T03:34:06.840Z,101759.14
2018-01-12T03:36:34.488Z,101760.25
2018-01-12T03:39:02.670Z,101764.67
2018-01-12T03:41:30.371Z,101768.55
2018-01-12T03:43:58.018Z,101768.16
2018-01-12T03:46:26.226Z,101768.25
2018-01-12T03:48:53.875Z,101767.75
2018-01-12T03:51:21.533Z,101771.00
2018-01-12T03:53:49.187Z,101766.42
2018-01-12T03:56:16.788Z,101765.01
2018-01-12T03:58:44.436Z,101768.50
2018-01-12T04:01:12.164Z,101770.48
2018-01-12T04:03:39.946Z,101775.70
2018-01-12T04:06:07.665Z,101775.30
2018-01-12T04:08:35.429Z,101772.16
2018-01-12T04:11:04.075Z,101776.44
2018-01-12T04:13:31.839Z,101777.81
2018-01-12T04:15:59.534Z,101766.77
2018-01-12T04:18:27.295Z,101781.52
2018-01-12T04:20:54.995Z,101776.56
2018-01-12T04:23:22.736Z,101782.72
2018-01-12T04:25:50.465Z,101782.61
2018-01-12T04:28:18.292Z,101784.05
2018-01-12T04:30:45.925Z,101792.87
2018-01-12T04:33:13.636Z,101785.33
2018-01-12T04:35:41.315Z,101784.92
2018-01-12T04:38:08.981Z,101784.31
2018-01-12T04:40:36.606Z,101780.22
2018-01-12T04:43:04.321Z,101782.14
2018-01-12T04:45:32.057Z,101786.86
2018-01-12T04:47:59.724Z,101783.08
2018-01-12T04:50:27.362Z,101777.66
2018-01-12T04:52:55.113Z,101774.38
2018-01-12T04:55:22.743Z,101775.81
2018-01-12T04:57:50.473Z,101775.09
2018-01-12T05:00:18.130Z,101777.66
2018-01-12T05:02:45.832Z,101775.53
2018-01-12T05:05:13.456Z,101777.80
2018-01-12T05:07:41.101Z,101780.13
2018-01-12T05:10:08.737Z,101783.42
2018-01-12T05:12:36.382Z,101778.47
2018-01-12T05:15:03.979Z,101772.23
2018-01-12T05:17:31.662Z,101773.34
2018-01-12T05:19:59.292Z,101779.89
2018-01-12T05:22:26.944Z,101787.39
2018-01-12T05:24:54.547Z,101784.91
2018-01-12T05:27:22.226Z,101779.53
2018-01-12T05:29:49.888Z,101783.70
2018-01-12T05:32:17.550Z,101786.37
2018-01-12T05:34:45.168Z,101786.09
2018-01-12T05:37:12.860Z,101786.09
2018-01-12T05:39:40.503Z,101788.23
2018-01-12T05:42:08.148Z,101790.47
2018-01-12T05:44:36.821Z,101789.66
2018-01-12T05:47:04.491Z,101794.34
2018-01-12T05:49:32.127Z,101799.36
2018-01-12T05:51:59.770Z,101795.97
2018-01-12T05:54:27.388Z,101797.98
2018-01-12T05:56:55.059Z,101794.08
2018-01-12T05:59:22.690Z,101803.63
2018-01-12T06:02:02.036Z,101800.48
2018-01-12T06:04:41.555Z,101791.41
2018-01-12T06:07:09.255Z,101801.30
2018-01-12T06:09:36.895Z,101802.64
2018-01-12T06:12:04.530Z,101803.66
2018-01-12T06:14:32.243Z,101803.84
2018-01-12T06:17:00.015Z,101808.26
2018-01-12T06:19:27.619Z,101808.84
2018-01-12T06:21:55.285Z,101813.80
2018-01-12T06:24:22.890Z,101811.34
2018-01-12T06:26:50.539Z,101812.69
2018-01-12T06:29:18.935Z,101818.92
2018-01-12T06:31:46.681Z,101813.70
2018-01-12T06:34:14.260Z,101823.56
2018-01-12T06:36:41.933Z,101828.17
2018-01-12T06:39:09.995Z,101831.57
2018-01-12T06:41:37.671Z,101840.67
2018-01-12T06:44:05.925Z,101842.92
2018-01-12T06:46:33.610Z,101845.97
2018-01-12T06:49:01.233Z,101850.01
2018-01-12T06:51:28.894Z,101848.11
2018-01-12T06:53:56.514Z,101855.61
2018-01-12T06:56:24.790Z,101859.60
2018-01-12T06:58:53.036Z,101856.52
2018-01-12T07:01:20.770Z,101863.59
2018-01-12T07:03:48.403Z,101859.29
2018-01-12T07:06:16.083Z,101863.66
2018-01-12T07:08:43.713Z,101864.19
2018-01-12T07:11:11.354Z,101867.37
2018-01-12T07:13:38.992Z,101878.73
2018-01-12T07:16:06.711Z,101877.81
2018-01-12T07:18:34.375Z,101883.45
2018-01-12T07:21:13.717Z,101883.13
2018-01-12T07:23:46.930Z,101886.70
2018-01-12T07:26:14.613Z,101877.70
2018-01-12T07:28:42.230Z,101877.50
2018-01-12T07:31:10.832Z,101882.91
2018-01-12T07:33:38.511Z,101883.63
2018-01-12T07:36:06.428Z,101886.42
2018-01-12T07:38:34.145Z,101895.73
2018-01-12T07:41:01.834Z,101897.66
2018-01-12T07:43:30.364Z,101897.34
2018-01-12T07:45:58.745Z,101897.17
2018-01-12T07:48:26.721Z,101897.77
2018-01-12T07:50:54.730Z,101892.45
2018-01-12T07:53:23.000Z,101893.56
2018-01-12T07:55:50.973Z,101896.44
2018-01-12T07:58:19.077Z,101893.77
2018-01-12T08:00:52.625Z,101901.13
2018-01-12T08:03:20.746Z,101896.86
2018-01-12T08:05:48.811Z,101899.30
2018-01-12T08:08:16.876Z,101903.71
2018-01-12T08:10:44.938Z,101911.06
2018-01-12T08:13:13.716Z,101911.69
2018-01-12T08:15:41.865Z,101921.41
2018-01-12T08:18:09.820Z,101922.53
2018-01-12T08:20:38.081Z,101929.89
2018-01-12T08:23:06.871Z,101933.88
2018-01-12T08:25:34.995Z,101925.90
2018-01-12T08:28:02.989Z,101932.66
2018-01-12T08:30:30.995Z,101935.63
2018-01-12T08:32:58.934Z,101937.99
2018-01-12T08:35:26.983Z,101942.48
2018-01-12T08:37:55.088Z,101946.78
2018-01-12T08:40:23.053Z,101954.17
2018-01-12T08:42:50.990Z,101952.53
2018-01-12T08:45:18.952Z,101952.63
2018-01-12T08:47:47.677Z,101956.73
2018-01-12T08:50:15.625Z,101955.08
2018-01-12T08:52:43.617Z,101962.05
2018-01-12T08:55:11.524Z,101965.41
2018-01-12T08:57:39.566Z,101959.98
2018-01-12T09:00:08.043Z,101957.33
2018-01-12T09:02:36.612Z,101957.11
2018-01-12T09:05:04.652Z,101964.30
2018-01-12T09:07:33.504Z,101971.86
2018-01-12T09:10:01.556Z,101972.39
2018-01-12T09:12:29.485Z,101977.61
2018-01-12T09:17:52.445Z,101979.95
2018-01-12T09:20:20.057Z,101983.94
2018-01-12T09:22:48.412Z,101983.53
2018-01-12T09:25:23.643Z,101988.16
2018-01-12T09:27:51.218Z,101985.07
2018-01-12T09:30:18.845Z,101988.56
2018-01-12T09:32:49.331Z,101990.49
2018-01-12T09:35:17.013Z,101993.15
2018-01-12T09:37:44.620Z,101993.58
2018-01-12T09:43:17.815Z,101994.48
2018-01-12T09:45:45.441Z,101994.38
2018-01-12T09:48:26.041Z,101991.83
2018-01-12T09:50:53.657Z,101994.28
2018-01-12T09:53:21.240Z,102002.58
2018-01-12T09:55:48.865Z,101998.69
2018-01-12T09:58:16.573Z,101995.22
2018-01-12T10:01:00.813Z,101998.48
2018-01-12T10:03:28.409Z,102000.94
2018-01-12T10:05:56.134Z,101996.65
2018-01-12T10:08:26.423Z,102000.09
2018-01-12T10:10:54.058Z,102010.03
2018-01-12T10:13:21.671Z,102000.00
2018-01-12T10:15:49.280Z,102008.70
2018-01-12T10:18:26.234Z,102011.58
2018-01-12T10:20:53.837Z,102010.77
2018-01-12T10:23:21.466Z,102008.64
2018-01-12T10:25:49.063Z,102007.80
2018-01-12T10:28:19.304Z,102008.44
2018-01-12T10:30:58.803Z,102002.59
2018-01-12T10:33:42.585Z,102009.45
2018-01-12T10:36:10.198Z,102004.34
2018-01-12T10:38:37.829Z,102003.81
2018-01-12T10:54:34.913Z,101993.98
2018-01-12T10:57:03.269Z,101995.23
2018-01-12T10:59:30.902Z,101997.47
2018-01-12T11:01:58.525Z,101989.06
2018-01-12T11:04:26.179Z,101994.48
2018-01-12T11:06:53.780Z,101989.48
2018-01-12T11:09:21.399Z,101991.73
2018-01-12T11:11:49.009Z,101991.31
2018-01-12T11:14:16.626Z,101988.66
2018-01-12T11:16:44.226Z,101983.43
2018-01-12T11:19:11.855Z,101987.14
2018-01-12T11:21:39.521Z,101985.39
2018-01-12T11:24:07.203Z,101983.54
2018-01-12T11:26:34.827Z,101977.62
2018-01-12T11:29:02.462Z,101979.66
2018-01-12T11:31:30.303Z,101977.20
2018-01-12T11:33:57.931Z,101978.85
2018-01-12T11:36:25.556Z,101978.33
2018-01-12T11:38:53.175Z,101974.72
2018-01-12T11:41:20.782Z,101978.71
2018-01-12T11:43:48.534Z,101981.90
2018-01-12T11:46:16.094Z,101983.13
2018-01-12T11:48:43.711Z,101979.02
2018-01-12T11:51:11.309Z,101983.75
2018-01-12T11:53:38.958Z,101980.25
2018-01-12T11:56:06.562Z,101977.59
2018-01-12T11:58:34.186Z,101982.59
2018-01-12T12:01:01.810Z,101976.66
2018-01-12T12:03:29.455Z,101975.94
2018-01-12T12:05:57.056Z,101973.91
2018-01-12T12:08:24.721Z,101974.23
2018-01-12T12:10:52.337Z,101978.22
2018-01-12T12:13:19.945Z,101975.34
2018-01-12T12:15:47.541Z,101975.77
2018-01-12T12:18:15.172Z,101974.11
2018-01-12T12:20:42.782Z,101971.83
2018-01-12T12:23:10.532Z,101969.67
2018-01-12T12:25:38.129Z,101968.44
2018-01-12T12:28:06.581Z,101967.42
2018-01-12T12:30:34.171Z,101967.12
2018-01-12T12:33:01.803Z,101962.59
2018-01-12T12:35:29.403Z,101965.57
2018-01-12T12:37:57.112Z,101964.55
2018-01-12T12:40:24.717Z,101965.88
2018-01-12T12:42:52.339Z,101970.80
2018-01-12T12:45:19.990Z,101967.55
2018-01-12T12:47:47.606Z,101960.58
2018-01-12T12:50:15.213Z,101957.82
2018-01-12T12:52:42.865Z,101960.06
2018-01-12T12:55:10.451Z,101952.50
2018-01-12T12:57:38.089Z,101952.92
2018-01-12T13:00:05.802Z,101953.62
2018-01-12T13:02:33.429Z,101951.59
2018-01-12T13:05:01.036Z,101951.69
2018-01-12T13:07:28.665Z,101952.50
2018-01-12T13:09:56.285Z,101955.17
2018-01-12T13:12:24.015Z,101949.03
2018-01-12T13:14:51.618Z,101951.80
2018-01-12T13:17:19.237Z,101957.73
2018-01-12T13:19:46.854Z,101951.17
2018-01-12T13:22:14.503Z,101960.22
2018-01-12T13:24:42.250Z,101952.82
2018-01-12T13:27:09.821Z,101952.92
2018-01-12T13:29:37.457Z,101954.03
2018-01-12T13:32:05.061Z,101955.48
2018-01-12T13:34:32.682Z,101960.48
2018-01-12T13:37:00.310Z,101960.91
2018-01-12T13:39:28.001Z,101962.23
2018-01-12T13:41:55.555Z,101957.72
2018-01-12T13:44:23.243Z,101958.24
2018-01-12T13:46:50.853Z,101957.41
2018-01-12T13:49:18.503Z,101962.84
2018-01-12T13:51:46.233Z,101963.26
2018-01-12T13:54:13.871Z,101954.25
2018-01-12T13:56:41.471Z,101964.28
2018-01-12T13:59:09.103Z,101964.10
2018-01-12T14:01:36.701Z,101970.66
2018-01-12T14:04:04.445Z,101971.88
2018-01-12T14:06:32.055Z,101975.87
2018-01-12T14:08:59.706Z,101966.03
2018-01-12T14:11:27.419Z,101969.50
2018-01-12T14:13:55.066Z,101971.14
2018-01-12T14:16:22.655Z,101967.77
2018-01-12T14:18:50.273Z,101965.61
2018-01-12T14:21:17.876Z,101973.48
2018-01-12T14:23:45.489Z,101969.81
2018-01-12T14:26:13.102Z,101972.16
2018-01-12T14:28:40.829Z,101983.55
2018-01-12T14:31:08.438Z,101982.81
2018-01-12T14:33:36.101Z,101982.84
2018-01-12T14:36:03.774Z,101989.19
2018-01-12T14:38:31.417Z,101989.30
2018-01-12T14:40:59.010Z,101990.10
2018-01-12T14:43:26.635Z,101989.89
2018-01-12T14:45:54.250Z,101992.23
2018-01-12T14:48:21.870Z,101986.42
2018-01-12T14:50:49.496Z,101992.23
2018-01-12T14:53:17.114Z,101991.33
2018-01-12T14:55:44.721Z,101981.78
2018-01-12T14:58:12.370Z,101988.45
2018-01-12T15:00:39.962Z,101988.77
2018-01-12T15:03:07.601Z,101994.58
2018-01-12T15:05:35.281Z,101988.76
2018-01-12T15:08:02.911Z,101987.92
2018-01-12T15:10:30.622Z,101990.19
2018-01-12T15:12:58.285Z,101987.91
2018-01-12T15:15:25.885Z,101989.66
2018-01-12T15:17:53.537Z,101986.37
2018-01-12T15:20:21.141Z,101990.25
2018-01-12T15:22:48.798Z,101991.52
2018-01-12T15:25:16.405Z,101990.08
2018-01-12T15:27:44.022Z,101989.77
2018-01-12T15:30:11.661Z,101988.03
2018-01-12T15:32:39.305Z,101995.21
2018-01-12T15:35:06.945Z,101989.25
2018-01-12T15:37:34.581Z,101992.44
2018-01-12T15:40:02.183Z,102001.87
2018-01-12T15:42:29.895Z,102005.34
2018-01-12T15:44:57.510Z,102002.89
2018-01-12T15:47:25.143Z,101995.31
2018-01-12T15:49:52.743Z,102000.44
2018-01-12T15:52:20.382Z,101997.07
2018-01-12T15:54:47.961Z,101998.69
2018-01-12T15:57:15.615Z,102000.96
2018-01-12T15:59:43.202Z,102003.91
2018-01-12T16:02:10.854Z,102002.58
2018-01-12T16:04:38.484Z,102008.42
2018-01-12T16:07:06.248Z,102001.88
2018-01-12T16:09:33.861Z,101995.31
2018-01-12T16:12:01.518Z,101999.52
2018-01-12T16:14:29.110Z,101995.10
2018-01-12T16:16:56.750Z,102003.09
2018-01-12T16:19:24.348Z,102005.02
2018-01-12T16:21:52.112Z,102010.17
2018-01-12T16:24:19.706Z,102009.96
2018-01-12T16:26:47.451Z,102003.19
2018-01-12T16:29:15.039Z,102002.56
2018-01-12T16:31:42.650Z,102014.87
2018-01-12T16:34:10.423Z,102005.02
2018-01-12T16:36:38.031Z,102013.95
2018-01-12T16:39:05.667Z,102003.41
2018-01-12T16:41:33.282Z,102011.68
2018-01-12T16:44:00.915Z,102004.00
2018-01-12T16:46:28.533Z,102005.02
2018-01-12T16:48:56.177Z,102002.66
2018-01-12T16:51:23.761Z,102006.77
2018-01-12T16:53:51.406Z,102004.41
2018-01-12T16:56:19.010Z,102006.77
2018-01-12T16:58:46.632Z,102006.87
2018-01-12T17:01:14.237Z,102008.91
2018-01-12T17:03:41.866Z,102014.34
2018-01-12T17:06:09.470Z,102005.02
2018-01-12T17:08:37.155Z,102006.45
2018-01-12T17:11:04.742Z,102009.53
2018-01-12T17:13:32.359Z,102004.80
2018-01-12T17:15:59.973Z,102005.84
2018-01-12T17:18:27.633Z,102009.63
2018-01-12T17:20:55.230Z,102006.32
2018-01-12T17:23:22.871Z,102005.52
2018-01-12T17:25:50.498Z,102006.33
2018-01-12T17:28:18.146Z,102003.36
2018-01-12T17:30:45.751Z,102000.22
2018-01-12T17:33:13.381Z,101999.09
2018-01-12T17:35:40.996Z,102007.69
2018-01-12T17:38:08.648Z,102003.20
2018-01-12T17:40:36.242Z,102006.88
2018-01-12T17:43:03.893Z,102005.55
2018-01-12T17:45:31.482Z,101995.42
2018-01-12T17:47:59.126Z,102001.77
2018-01-12T17:50:26.734Z,101998.25
2018-01-12T17:52:54.381Z,101988.12
2018-01-12T17:55:22.005Z,101995.91
2018-01-12T17:57:49.649Z,101998.40
2018-01-12T18:00:17.246Z,101999.10
2018-01-12T18:02:44.874Z,102005.23
2018-01-12T18:05:12.480Z,101997.77
2018-01-12T18:07:40.114Z,101996.84
2018-01-12T18:10:07.727Z,101995.80
2018-01-12T18:12:35.361Z,102000.11
2018-01-12T18:15:02.948Z,102001.23
2018-01-12T18:17:30.598Z,102001.11
2018-01-12T18:19:58.214Z,102000.41
2018-01-12T18:22:25.858Z,102003.23
2018-01-12T18:24:53.511Z,102003.86
2018-01-12T18:27:21.173Z,102007.23
2018-01-12T18:29:48.781Z,102005.73
2018-01-12T18:32:16.426Z,102007.88
2018-01-12T18:34:44.060Z,102008.50
2018-01-12T18:37:11.899Z,102012.61
2018-01-12T18:39:39.563Z,102008.19
2018-01-12T18:42:07.196Z,102012.61
2018-01-12T18:44:34.806Z,102007.78
2018-01-12T18:47:02.541Z,102010.88
2018-01-12T18:49:30.202Z,102009.44
2018-01-12T18:51:57.821Z,102013.86
2018-01-12T18:54:25.446Z,102019.78
2018-01-12T18:56:53.043Z,102021.33
2018-01-12T18:59:20.693Z,102023.39
2018-01-12T19:01:48.300Z,102019.61
2018-01-12T19:04:15.960Z,102024.83
2018-01-12T19:06:43.609Z,102025.03
2018-01-12T19:09:11.241Z,102023.88
2018-01-12T19:11:38.875Z,102020.52
2018-01-12T19:14:06.473Z,102013.75
2018-01-12T19:16:34.094Z,102019.98
2018-01-12T19:19:01.707Z,102013.11
2018-01-12T19:21:29.379Z,102018.86
2018-01-12T19:23:57.045Z,102023.06
2018-01-12T19:26:24.693Z,102018.33
2018-01-12T19:28:52.281Z,102018.32
2018-01-12T19:31:19.917Z,102021.09
2018-01-12T19:33:47.572Z,102022.52
2018-01-12T19:36:15.205Z,102020.77
2018-01-12T19:38:42.836Z,102026.73
2018-01-12T19:41:10.450Z,102025.10
2018-01-12T19:43:38.127Z,102027.98
2018-01-12T19:46:05.777Z,102031.28
2018-01-12T19:48:33.461Z,102033.02
2018-01-12T19:51:01.067Z,102034.87
2018-01-12T19:53:28.693Z,102041.20
2018-01-12T19:55:56.318Z,102039.03
2018-01-12T19:58:23.957Z,102047.33
2018-01-12T20:00:51.577Z,102047.23
2018-01-12T20:03:19.272Z,102051.24
2018-01-12T20:05:46.953Z,102054.23
2018-01-12T20:08:14.593Z,102052.27
2018-01-12T20:10:42.520Z,102054.13
2018-01-12T20:13:10.258Z,102053.11
2018-01-12T20:15:37.979Z,102046.24
2018-01-12T20:18:05.809Z,102054.41
2018-01-12T20:20:33.690Z,102052.69
2018-01-12T20:23:01.674Z,102055.15
2018-01-12T20:25:29.314Z,102057.59
2018-01-12T20:27:56.961Z,102051.85
2018-01-12T20:30:24.574Z,102053.92
2018-01-12T20:32:52.508Z,102049.71
2018-01-12T20:35:20.137Z,102058.41
2018-01-12T20:37:47.766Z,102056.58
2018-01-12T20:40:15.360Z,102061.98
2018-01-12T20:42:43.223Z,102060.86
2018-01-12T20:45:11.042Z,102059.24
2018-01-12T20:47:38.710Z,102061.88
2018-01-12T20:50:06.306Z,102060.95
2018-01-12T20:52:33.938Z,102061.06
2018-01-12T20:55:01.588Z,102058.30
2018-01-12T20:57:29.352Z,102060.86
2018-01-12T20:59:56.957Z,102054.30
2018-01-12T21:02:24.601Z,102057.39
2018-01-12T21:04:52.198Z,102055.95
2018-01-12T21:07:19.835Z,102052.59
2018-01-12T21:09:47.438Z,102058.13
2018-01-12T21:12:15.078Z,102056.97
2018-01-12T21:14:42.666Z,102056.38
2018-01-12T21:17:10.457Z,102054.02
2018-01-12T21:19:38.073Z,102045.81
2018-01-12T21:22:05.881Z,102048.77
2018-01-12T21:24:33.546Z,102044.06
2018-01-12T21:27:01.158Z,102046.31
2018-01-12T21:29:28.815Z,102043.16
2018-01-12T21:31:56.439Z,102042.21
2018-01-12T21:34:24.039Z,102050.20
2018-01-12T21:36:51.657Z,102055.04
2018-01-12T21:39:19.276Z,102052.66
2018-01-12T21:41:46.902Z,102053.28
2018-01-12T21:44:14.517Z,102054.61
2018-01-12T21:46:42.131Z,102049.28
2018-01-12T21:49:09.742Z,102047.74
2018-01-12T21:51:37.391Z,102053.80
2018-01-12T21:54:05.019Z,102053.80
2018-01-12T21:56:32.644Z,102045.77
2018-01-12T21:59:00.286Z,102048.37
2018-01-12T22:01:27.921Z,102053.49
2018-01-12T22:03:55.526Z,102046.94
2018-01-12T22:06:23.157Z,102040.27
2018-01-12T22:08:50.766Z,102043.53
2018-01-12T22:11:18.389Z,102044.05
2018-01-12T22:13:45.987Z,102044.87
2018-01-12T22:16:13.643Z,102042.52
2018-01-12T22:18:41.230Z,102048.05
2018-01-12T22:21:08.871Z,102037.50
2018-01-12T22:23:36.458Z,102033.92
2018-01-12T22:26:04.074Z,102033.82
2018-01-12T22:28:31.684Z,102037.71
2018-01-12T22:30:59.302Z,102036.97
2018-01-12T22:33:26.905Z,102033.71
2018-01-12T22:35:54.534Z,102035.33
2018-01-12T22:38:22.141Z,102043.22
2018-01-12T22:40:49.764Z,102036.55
2018-01-12T22:43:17.366Z,102042.83
2018-01-12T22:45:45.008Z,102036.77
2018-01-12T22:48:12.602Z,102043.64
2018-01-12T22:50:40.230Z,102046.42
2018-01-12T22:53:07.827Z,102048.58
2018-01-12T22:55:35.482Z,102049.39
2018-01-12T22:58:03.083Z,102057.37
2018-01-12T23:00:30.714Z,102047.42
2018-01-12T23:02:58.294Z,102050.11
2018-01-12T23:05:25.950Z,102045.32
2018-01-12T23:07:53.654Z,102045.61
2018-01-12T23:10:21.307Z,102043.05
2018-01-12T23:12:48.912Z,102030.58
2018-01-12T23:15:16.570Z,102031.06
2018-01-12T23:17:44.258Z,102025.84
2018-01-12T23:20:11.886Z,102037.63
2018-01-12T23:22:39.609Z,102034.74
2018-01-12T23:25:07.226Z,102038.03
2018-01-12T23:27:34.839Z,102030.97
2018-01-12T23:30:02.530Z,102027.45
2018-01-12T23:32:30.130Z,102023.08
2018-01-12T23:34:57.753Z,102024.42
2018-01-12T23:37:25.440Z,102020.33
2018-01-12T23:39:53.058Z,102023.70
2018-01-12T23:42:20.645Z,102013.56
2018-01-12T23:44:48.273Z,102012.62
2018-01-12T23:47:15.857Z,102012.33
2018-01-12T23:49:43.485Z,102014.05
2018-01-12T23:52:11.237Z,102018.32
2018-01-12T23:54:38.849Z,102005.63
2018-01-12T23:57:06.586Z,102006.45
2018-01-12T23:59:34.214Z,102007.57
